Time;durP1;ratioP1;P1;durP2;ratioP2;P2;SDS_P1;SDS_P2;PMS_P1;PMS_P2;Temp;Humidity;BMP_temperature;BMP_pressure;BME280_temperature;BME280_humidity;BME280_pressure;Samples;Min_cycle;Max_cycle;Signal;HPM_P1;HPM_P2
2020/12/16 00:00:29;;;;;;;8.37;5.50;;;;;;;-2.17;93.86;93654.94;1849760;77;21159;-78
2020/12/16 00:02:58;;;;;;;5.97;3.73;;;;;;;-2.13;93.67;93657.22;1790561;77;21181;-80
2020/12/16 00:05:26;;;;;;;9.13;5.47;;;;;;;-2.11;93.64;93655.80;1795104;77;21622;-81
2020/12/16 00:07:54;;;;;;;9.57;6.37;;;;;;;-2.10;93.56;93648.06;1840124;77;21149;-78
2020/12/16 00:10:22;;;;;;;10.87;6.00;;;;;;;-2.08;93.68;93652.52;1825938;77;22076;-79
2020/12/16 00:12:50;;;;;;;10.43;6.77;;;;;;;-2.06;93.67;93657.00;1850782;77;21567;-80
2020/12/16 00:15:19;;;;;;;8.90;6.17;;;;;;;-2.09;93.69;93665.61;1800889;77;21074;-79
2020/12/16 00:17:48;;;;;;;9.83;7.10;;;;;;;-2.12;93.75;93658.23;1813673;78;21160;-81
2020/12/16 00:20:16;;;;;;;10.00;6.90;;;;;;;-2.10;93.89;93656.06;1791206;79;21181;-79
2020/12/16 00:22:45;;;;;;;11.10;7.23;;;;;;;-2.09;93.93;93657.62;1802740;79;21252;-82
2020/12/16 00:25:14;;;;;;;12.07;7.27;;;;;;;-2.10;93.81;93649.95;1777813;79;21150;-81
2020/12/16 00:27:43;;;;;;;12.47;8.13;;;;;;;-2.12;94.04;93654.79;1805448;79;21152;-81
2020/12/16 00:30:11;;;;;;;12.77;7.30;;;;;;;-2.12;94.08;93656.91;1782957;77;21146;-80
2020/12/16 00:32:40;;;;;;;11.33;7.10;;;;;;;-2.16;94.12;93665.83;1810385;78;21123;-81
2020/12/16 00:35:09;;;;;;;12.60;7.63;;;;;;;-2.19;94.22;93661.89;1801308;77;22125;-75
2020/12/16 00:37:39;;;;;;;11.33;6.77;;;;;;;-2.23;94.22;93656.39;1809323;76;21050;-80
2020/12/16 00:40:13;;;;;;;10.33;7.03;;;;;;;-2.22;94.31;93660.65;1872716;76;21156;-80
2020/12/16 00:42:46;;;;;;;9.23;6.83;;;;;;;-2.21;94.15;93653.44;1793535;79;21151;-81
2020/12/16 00:45:15;;;;;;;10.87;7.37;;;;;;;-2.18;94.07;93654.16;1799732;78;21175;-78
2020/12/16 00:47:43;;;;;;;10.73;6.83;;;;;;;-2.18;93.86;93659.48;1842115;76;22103;-78
2020/12/16 00:50:11;;;;;;;8.93;5.43;;;;;;;-2.17;93.88;93652.28;1843002;77;21634;-80
2020/12/16 00:52:42;;;;;;;8.13;6.13;;;;;;;-2.16;93.82;93652.51;1814178;77;21298;-80
2020/12/16 00:55:10;;;;;;;9.57;5.90;;;;;;;-2.21;93.63;93661.44;1822183;77;21120;-80
2020/12/16 00:57:38;;;;;;;8.07;6.07;;;;;;;-2.26;93.71;93647.71;1859615;77;21094;-78
2020/12/16 01:00:09;;;;;;;9.87;5.87;;;;;;;-2.24;93.85;93660.16;1829409;77;22013;-77
2020/12/16 01:02:46;;;;;;;8.30;6.00;;;;;;;-2.22;93.82;93659.32;1856152;77;21124;-80
2020/12/16 01:05:15;;;;;;;10.00;6.10;;;;;;;-2.18;93.83;93654.68;1822861;77;21637;-78
2020/12/16 01:07:45;;;;;;;9.77;6.90;;;;;;;-2.20;93.68;93657.11;1832320;77;21783;-78
2020/12/16 01:10:14;;;;;;;8.83;5.87;;;;;;;-2.21;93.71;93650.78;1847991;77;21155;-78
2020/12/16 01:12:43;;;;;;;10.27;5.97;;;;;;;-2.23;93.76;93648.41;1782014;77;22474;-81
2020/12/16 01:15:20;;;;;;;9.40;6.27;;;;;;;-2.23;93.66;93644.41;1775541;80;21209;-77
2020/12/16 01:17:50;;;;;;;9.77;5.93;;;;;;;-2.25;93.63;93645.83;1784900;78;21188;-78
2020/12/16 01:20:20;;;;;;;17.50;7.77;;;;;;;-2.26;93.54;93642.39;1833265;77;21161;-79
2020/12/16 01:22:49;;;;;;;11.00;5.77;;;;;;;-2.26;93.29;93648.23;1819957;75;21263;-81
2020/12/16 01:25:19;;;;;;;9.90;6.83;;;;;;;-2.29;93.15;93639.55;1823234;78;21195;-79
2020/12/16 01:27:56;;;;;;;7.67;5.30;;;;;;;-2.33;93.16;93639.91;1754030;78;21089;-74
2020/12/16 01:30:24;;;;;;;8.37;5.23;;;;;;;-2.36;93.19;93632.00;1777084;79;21121;-79
2020/12/16 01:32:52;;;;;;;8.87;6.50;;;;;;;-2.41;93.37;93625.47;1797832;79;21173;-80
2020/12/16 01:35:23;;;;;;;7.27;5.60;;;;;;;-2.49;93.65;93629.67;1798306;79;21205;-78
2020/12/16 01:37:53;;;;;;;6.10;4.43;;;;;;;-2.56;93.89;93616.56;1773290;79;21216;-80
2020/12/16 01:40:22;;;;;;;5.57;3.70;;;;;;;-2.59;93.98;93617.20;1691060;83;21208;-80
2020/12/16 01:42:51;;;;;;;5.67;4.03;;;;;;;-2.56;93.74;93620.01;1830117;77;21456;-79
2020/12/16 01:45:22;;;;;;;10.13;6.80;;;;;;;-2.53;93.78;93618.06;1854378;76;21471;-81
2020/12/16 01:47:52;;;;;;;10.23;6.03;;;;;;;-2.55;93.87;93613.61;1846461;75;21596;-78
2020/12/16 01:50:23;;;;;;;9.67;6.37;;;;;;;-2.61;94.01;93616.71;1840161;77;21205;-80
2020/12/16 01:52:51;;;;;;;10.20;6.90;;;;;;;-2.65;94.25;93620.53;1784431;78;21170;-78
2020/12/16 01:55:21;;;;;;;10.73;6.13;;;;;;;-2.72;94.48;93617.52;1783296;80;21191;-80
2020/12/16 01:57:51;;;;;;;8.27;5.93;;;;;;;-2.74;94.75;93626.38;1817181;77;21158;-81
2020/12/16 02:00:21;;;;;;;11.00;6.50;;;;;;;-2.77;94.91;93618.45;1793490;78;21064;-79
2020/12/16 02:02:52;;;;;;;10.30;5.77;;;;;;;-2.78;95.06;93617.44;1828457;77;21223;-81
2020/12/16 02:05:25;;;;;;;12.10;7.43;;;;;;;-2.76;95.23;93620.02;1836281;77;21140;-80
2020/12/16 02:07:55;;;;;;;11.53;6.97;;;;;;;-2.73;95.25;93616.75;1811552;78;21176;-77
2020/12/16 02:10:24;;;;;;;8.60;5.40;;;;;;;-2.67;95.11;93613.94;1761047;79;21142;-80
2020/12/16 02:12:53;;;;;;;12.07;7.60;;;;;;;-2.66;94.96;93614.20;1846890;77;21094;-76
2020/12/16 02:15:21;;;;;;;11.97;7.00;;;;;;;-2.66;94.93;93608.32;1857596;77;21192;-81
2020/12/16 02:17:50;;;;;;;10.07;6.10;;;;;;;-2.69;95.08;93612.92;1859995;76;22180;-78
2020/12/16 02:20:20;;;;;;;13.13;7.50;;;;;;;-2.74;95.21;93601.88;1858167;77;21150;-77
2020/12/16 02:22:50;;;;;;;9.30;5.80;;;;;;;-2.75;95.23;93604.27;1828795;77;21042;-83
2020/12/16 02:25:20;;;;;;;9.33;5.97;;;;;;;-2.76;95.17;93606.70;1861551;77;21050;-79
2020/12/16 02:27:56;;;;;;;10.00;6.53;;;;;;;-2.77;95.11;93601.70;1852161;76;21206;-77
2020/12/16 02:30:26;;;;;;;12.77;7.00;;;;;;;-2.77;95.00;93595.05;1858367;77;21142;-77
2020/12/16 02:33:14;;;;;;;12.80;7.83;;;;;;;-2.78;94.90;93592.94;1817139;76;21361;-80
2020/12/16 02:35:57;;;;;;;8.70;6.03;;;;;;;-2.76;94.81;93593.95;1849542;77;21134;-79
2020/12/16 02:38:27;;;;;;;9.97;5.77;;;;;;;-2.77;94.42;93585.18;1839047;76;21155;-78
2020/12/16 02:40:55;;;;;;;7.87;5.33;;;;;;;-2.81;94.34;93580.78;1816792;78;21237;-78
2020/12/16 02:43:23;;;;;;;3.90;3.00;;;;;;;-2.86;94.32;93587.00;1786594;79;21491;-79
2020/12/16 02:45:53;;;;;;;5.57;4.13;;;;;;;-2.86;94.04;93589.66;1818881;77;21079;-76
2020/12/16 02:48:23;;;;;;;5.67;4.13;;;;;;;-2.91;93.31;93590.36;1857082;77;21565;-81
2020/12/16 02:50:53;;;;;;;6.73;4.93;;;;;;;-2.97;93.54;93591.83;1815872;77;21178;-78
2020/12/16 02:53:23;;;;;;;6.47;4.27;;;;;;;-2.97;93.74;93591.02;1770963;77;21194;-76
2020/12/16 02:56:09;;;;;;;8.40;5.43;;;;;;;-2.97;93.85;93594.49;1848585;77;21628;-76
2020/12/16 02:58:45;;;;;;;11.00;7.33;;;;;;;-2.95;93.95;93601.61;1752394;81;21514;-82
2020/12/16 03:01:14;;;;;;;10.50;6.70;;;;;;;-2.99;94.39;93592.67;1850540;77;21518;-83
2020/12/16 03:03:59;;;;;;;10.98;6.42;;;;;;;-3.00;94.77;93598.31;1816783;77;21144;-83
2020/12/16 03:06:39;;;;;;;9.53;6.47;;;;;;;-2.99;94.89;93593.22;1835333;77;21811;-81
2020/12/16 03:09:09;;;;;;;8.93;5.43;;;;;;;-3.00;94.92;93599.64;1834478;77;21168;-81
2020/12/16 03:11:38;;;;;;;10.60;6.73;;;;;;;-3.00;94.91;93591.66;1818583;76;21142;-77
2020/12/16 03:14:08;;;;;;;8.90;6.10;;;;;;;-3.02;94.88;93594.61;1865200;76;21582;-77
2020/12/16 03:16:37;;;;;;;9.87;5.83;;;;;;;-3.04;94.81;93592.81;1841357;77;21597;-80
2020/12/16 03:19:07;;;;;;;10.50;6.27;;;;;;;-3.04;94.62;93594.14;1772013;77;22413;-78
2020/12/16 03:21:37;;;;;;;9.50;5.67;;;;;;;-3.04;94.64;93581.39;1771319;80;21092;-80
2020/12/16 03:24:15;;;;;;;10.43;6.00;;;;;;;-3.05;94.71;93597.09;1830981;77;21151;-81
2020/12/16 03:26:50;;;;;;;10.20;6.07;;;;;;;-3.05;94.91;93587.78;1848697;77;21169;-80
2020/12/16 03:29:20;;;;;;;10.07;6.07;;;;;;;-3.05;94.88;93594.43;1816190;78;21054;-78
2020/12/16 03:31:50;;;;;;;8.97;4.80;;;;;;;-3.06;94.71;93589.66;1808507;79;21220;-81
2020/12/16 03:34:20;;;;;;;9.07;6.83;;;;;;;-3.06;94.41;93592.31;1838680;75;21164;-75
2020/12/16 03:36:53;;;;;;;9.27;5.27;;;;;;;-3.07;94.22;93593.42;1801338;76;21196;-76
2020/12/16 03:39:22;;;;;;;9.70;5.23;;;;;;;-3.09;94.29;93594.25;1764206;80;21210;-82
2020/12/16 03:41:51;;;;;;;12.50;7.70;;;;;;;-3.10;94.56;93583.37;1775738;80;21193;-80
2020/12/16 03:44:21;;;;;;;10.37;6.63;;;;;;;-3.11;94.69;93583.70;1807997;78;21660;-79
2020/12/16 03:46:52;;;;;;;12.83;7.33;;;;;;;-3.11;94.75;93579.16;1817671;77;21513;-78
2020/12/16 03:49:21;;;;;;;9.17;5.73;;;;;;;-3.09;94.89;93586.27;1819525;78;21149;-74
2020/12/16 03:51:55;;;;;;;11.27;5.83;;;;;;;-3.06;94.74;93589.66;1770893;79;21178;-78
2020/12/16 03:54:27;;;;;;;8.67;4.87;;;;;;;-3.06;94.47;93587.55;1787864;79;21464;-77
2020/12/16 03:56:57;;;;;;;9.10;4.97;;;;;;;-3.06;94.40;93578.23;1797237;79;21371;-81
2020/12/16 03:59:30;;;;;;;13.37;6.43;;;;;;;-3.07;94.37;93584.10;1783199;80;21073;-80
2020/12/16 04:02:03;;;;;;;16.93;8.13;;;;;;;-3.09;94.46;93570.31;1744352;81;21149;-80
2020/12/16 04:04:32;;;;;;;14.00;7.20;;;;;;;-3.10;94.57;93590.58;1783813;80;21176;-78
2020/12/16 04:07:02;;;;;;;14.83;7.90;;;;;;;-3.09;94.75;93596.13;1860519;74;21588;-77
2020/12/16 04:09:34;;;;;;;13.90;6.93;;;;;;;-3.09;95.01;93588.94;1858453;76;21200;-79
2020/12/16 04:12:04;;;;;;;12.80;6.87;;;;;;;-3.06;95.15;93600.84;1825492;78;21198;-75
2020/12/16 04:14:34;;;;;;;12.40;7.00;;;;;;;-3.05;95.13;93601.86;1814653;77;21641;-81
2020/12/16 04:17:03;;;;;;;12.63;7.57;;;;;;;-3.04;95.19;93602.67;1803569;79;21146;-78
2020/12/16 04:19:34;;;;;;;12.47;7.13;;;;;;;-3.05;95.26;93614.38;1853658;76;21177;-80
2020/12/16 04:22:02;;;;;;;10.23;5.67;;;;;;;-3.05;95.36;93616.50;1858450;76;21669;-80
2020/12/16 04:24:33;;;;;;;12.47;6.90;;;;;;;-3.02;95.32;93616.44;1838598;77;21201;-80
2020/12/16 04:27:06;;;;;;;4.60;3.30;;;;;;;-3.01;95.18;93621.47;1818499;78;21194;-76
2020/12/16 04:29:38;;;;;;;8.53;5.37;;;;;;;-3.00;94.61;93617.72;1819953;77;21048;-78
2020/12/16 04:32:06;;;;;;;6.30;3.80;;;;;;;-3.01;94.55;93620.66;1854702;77;21073;-78
2020/12/16 04:34:36;;;;;;;7.03;4.07;;;;;;;-3.02;94.09;93619.09;1846588;77;21272;-78
2020/12/16 04:37:05;;;;;;;3.63;2.80;;;;;;;-3.05;94.30;93614.38;1855178;77;21155;-82
2020/12/16 04:39:35;;;;;;;5.63;3.87;;;;;;;-3.06;94.13;93614.16;1856036;77;21155;-77
2020/12/16 04:42:04;;;;;;;11.93;5.87;;;;;;;-3.10;93.72;93615.30;1846695;77;21198;-77
2020/12/16 04:44:35;;;;;;;8.37;5.87;;;;;;;-3.11;94.21;93613.74;1819478;78;21550;-79
2020/12/16 04:47:05;;;;;;;8.37;6.37;;;;;;;-3.07;94.55;93613.37;1820976;78;21151;-78
2020/12/16 04:49:36;;;;;;;12.50;7.63;;;;;;;-3.03;94.58;93615.66;1819082;78;21163;-81
2020/12/16 04:52:04;;;;;;;11.03;7.10;;;;;;;-2.99;94.69;93616.62;1837819;77;21088;-82
2020/12/16 04:54:35;;;;;;;12.47;7.10;;;;;;;-2.96;94.55;93617.89;1849291;76;21473;-80
2020/12/16 04:57:06;;;;;;;13.37;8.43;;;;;;;-2.93;94.57;93619.95;1833023;77;21206;-80
2020/12/16 04:59:36;;;;;;;10.43;6.03;;;;;;;-2.90;94.59;93613.99;1848084;77;21645;-82
2020/12/16 05:02:05;;;;;;;12.93;7.80;;;;;;;-2.91;94.70;93620.41;1815497;77;21234;-83
2020/12/16 05:04:35;;;;;;;8.80;6.00;;;;;;;-2.91;94.72;93614.31;1830987;77;21146;-82
2020/12/16 05:07:05;;;;;;;14.40;7.37;;;;;;;-2.90;94.57;93618.53;1841278;77;21091;-79
2020/12/16 05:09:34;;;;;;;15.53;8.50;;;;;;;-2.90;94.54;93615.88;1843618;77;21131;-79
2020/12/16 05:12:02;;;;;;;10.00;6.43;;;;;;;-2.94;94.73;93619.69;1816025;78;22071;-77
2020/12/16 05:14:30;;;;;;;7.97;5.37;;;;;;;-2.97;94.73;93622.44;1777277;80;21213;-82
2020/12/16 05:17:04;;;;;;;8.40;5.87;;;;;;;-2.99;94.66;93617.95;1813550;78;21541;-79
2020/12/16 05:19:44;;;;;;;8.80;5.97;;;;;;;-2.99;94.79;93618.50;1811393;78;21577;-79
2020/12/16 05:22:28;;;;;;;10.07;6.03;;;;;;;-2.97;94.71;93621.10;1832598;76;21148;-82
2020/12/16 05:24:58;;;;;;;10.00;6.17;;;;;;;-2.97;94.72;93622.95;1836629;77;21360;-79
2020/12/16 05:27:28;;;;;;;9.13;6.17;;;;;;;-3.00;94.79;93626.25;1821363;76;21211;-81
2020/12/16 05:30:03;;;;;;;9.03;5.93;;;;;;;-3.01;94.85;93623.33;1824440;76;21587;-78
2020/12/16 05:32:36;;;;;;;10.50;6.07;;;;;;;-3.02;94.90;93615.11;1849624;77;21172;-82
2020/12/16 05:35:34;;;;;;;9.00;5.63;;;;;;;-3.03;94.94;93624.97;1823405;77;21250;-80
2020/12/16 05:38:08;;;;;;;9.70;5.83;;;;;;;-3.02;94.87;93624.42;1791919;78;21202;-80
2020/12/16 05:40:39;;;;;;;6.95;4.58;;;;;;;-3.03;94.58;93627.63;1832045;75;21594;-81
2020/12/16 05:43:07;;;;;;;7.33;4.87;;;;;;;-3.02;94.57;93637.73;1815020;77;21596;-81
2020/12/16 05:45:39;;;;;;;10.53;6.53;;;;;;;-3.00;94.73;93640.33;1779369;80;21551;-76
2020/12/16 05:48:10;;;;;;;8.33;4.77;;;;;;;-2.97;94.71;93633.08;1788669;78;21070;-79
2020/12/16 05:53:29;;;;;;;9.50;6.63;;;;;;;-2.93;94.42;93633.25;1805504;79;21201;-76
2020/12/16 05:56:06;;;;;;;11.20;7.00;;;;;;;-2.93;94.35;93642.56;1793153;77;21131;-78
2020/12/16 05:58:46;;;;;;;9.63;6.47;;;;;;;-2.92;94.43;93647.34;1836896;77;21172;-78
2020/12/16 06:01:25;;;;;;;11.03;7.17;;;;;;;-2.91;94.34;93640.38;1783606;79;21179;-78
2020/12/16 06:03:55;;;;;;;13.30;7.97;;;;;;;-2.89;94.26;93636.09;1789749;78;22183;-78
2020/12/16 06:06:37;;;;;;;18.20;11.37;;;;;;;-2.89;94.21;93649.40;1858859;77;21385;-80
2020/12/16 06:09:03;;;;;;;17.23;10.93;;;;;;;-2.90;94.21;93648.59;1848134;76;21198;-81
2020/12/16 06:11:37;;;;;;;13.83;9.28;;;;;;;-2.90;94.27;93646.47;1727994;81;21173;-80
2020/12/16 06:14:15;;;;;;;17.20;10.10;;;;;;;-2.93;94.43;93643.90;1807918;78;21180;-79
2020/12/16 06:16:48;;;;;;;14.13;7.17;;;;;;;-2.91;94.44;93647.02;1839022;76;21171;-76
2020/12/16 06:19:28;;;;;;;16.67;9.80;;;;;;;-2.91;94.31;93645.69;1835553;77;21233;-77
2020/12/16 06:22:10;;;;;;;11.73;7.00;;;;;;;-2.88;94.22;93642.98;1819030;78;21695;-79
2020/12/16 06:24:44;;;;;;;11.80;7.10;;;;;;;-2.85;94.08;93661.78;1833958;76;21464;-76
2020/12/16 06:27:21;;;;;;;10.77;6.43;;;;;;;-2.84;93.74;93662.02;1850471;76;21255;-80
2020/12/16 06:29:54;;;;;;;10.53;6.87;;;;;;;-2.86;93.92;93652.20;1858168;77;22152;-80
2020/12/16 06:32:32;;;;;;;10.03;6.20;;;;;;;-2.84;93.87;93661.23;1861003;77;21161;-79
2020/12/16 06:35:08;;;;;;;4.77;3.40;;;;;;;-2.82;93.84;93665.69;1852979;77;21189;-81
2020/12/16 06:37:44;;;;;;;10.13;5.83;;;;;;;-2.83;93.30;93662.80;1849711;76;21186;-79
2020/12/16 06:40:50;;;;;;;7.77;5.77;;;;;;;-2.90;93.35;93673.09;1837187;77;21163;-79
2020/12/16 06:43:37;;;;;;;5.30;4.53;;;;;;;-2.81;93.53;93661.41;1888546;76;22731;-78
2020/12/16 06:49:35;;;;;;;7.03;4.70;;;;;;;-2.83;93.23;93660.13;1869520;75;22938;-78
2020/12/16 06:52:10;;;;;;;4.15;3.75;;;;;;;-2.88;93.36;93661.05;1815285;77;21417;-79
2020/12/16 06:54:52;;;;;;;4.90;3.70;;;;;;;-2.85;93.21;93657.01;1800917;78;21797;-80
2020/12/16 06:57:29;;;;;;;6.10;4.33;;;;;;;-2.85;92.91;93657.01;1800569;78;21756;-81
2020/12/16 07:00:23;;;;;;;8.80;5.57;;;;;;;-2.85;93.16;93655.68;1818883;78;21290;-81
2020/12/16 07:03:00;;;;;;;12.63;7.73;;;;;;;-2.76;93.54;93653.28;1788467;78;21209;-82
2020/12/16 07:05:41;;;;;;;12.27;7.50;;;;;;;-2.59;93.42;93647.27;1789816;79;21289;-82
2020/12/16 07:08:12;;;;;;;10.70;7.30;;;;;;;-2.39;93.36;93653.14;1828171;78;21229;-76
2020/12/16 07:10:44;;;;;;;11.87;7.97;;;;;;;-2.07;92.84;93654.11;1830823;78;21348;-79
2020/12/16 07:13:17;;;;;;;13.37;8.47;;;;;;;-1.87;91.55;93653.28;1818811;78;21770;-76
2020/12/16 07:15:59;;;;;;;13.53;8.30;;;;;;;-1.82;90.59;93645.13;1816404;78;21188;-78
2020/12/16 07:18:46;;;;;;;11.87;8.17;;;;;;;-1.74;90.29;93659.80;1794215;76;21169;-81
2020/12/16 07:21:25;;;;;;;12.03;7.77;;;;;;;-1.68;89.73;93649.78;1835288;75;21302;-80
2020/12/16 07:24:09;;;;;;;12.73;7.90;;;;;;;-1.52;89.12;93652.21;1853581;77;21192;-81
2020/12/16 07:26:54;;;;;;;11.78;7.83;;;;;;;-1.30;88.28;93642.49;1773152;80;21248;-78
2020/12/16 07:29:34;;;;;;;12.95;7.95;;;;;;;-1.09;87.36;93645.28;1729651;81;21198;-76
2020/12/16 07:32:13;;;;;;;12.33;7.83;;;;;;;-0.84;86.56;93631.11;1751102;81;21223;-82
2020/12/16 07:34:52;;;;;;;13.00;8.30;;;;;;;-0.56;85.14;93645.42;1794856;79;21791;-81
2020/12/16 07:37:23;;;;;;;11.97;7.93;;;;;;;-0.40;83.33;93638.44;1788678;79;21143;-79
2020/12/16 07:39:55;;;;;;;8.93;7.22;;;;;;;-0.34;83.41;93640.38;1778611;80;21124;-81
2020/12/16 07:42:33;;;;;;;11.15;7.25;;;;;;;-0.24;82.82;93632.00;1794797;79;21224;-78
2020/12/16 07:45:09;;;;;;;10.30;7.40;;;;;;;-0.07;81.95;93626.58;1748952;81;21152;-79
2020/12/16 07:47:42;;;;;;;10.40;7.30;;;;;;;0.02;81.36;93630.53;1789601;80;21211;-81
2020/12/16 07:50:13;;;;;;;10.80;7.12;;;;;;;0.12;81.02;93636.08;1743414;79;21180;-77
2020/12/16 07:52:41;;;;;;;12.60;8.65;;;;;;;0.28;80.31;93638.97;1749498;81;21230;-79
2020/12/16 07:55:13;;;;;;;9.80;6.53;;;;;;;0.40;79.75;93635.02;1760545;79;21225;-81
2020/12/16 07:57:41;;;;;;;14.73;9.08;;;;;;;0.52;78.88;93636.98;1800656;77;21209;-80
2020/12/16 08:00:10;;;;;;;11.48;7.65;;;;;;;0.64;79.10;93633.83;1836059;77;22039;-81
2020/12/16 08:02:44;;;;;;;9.38;6.97;;;;;;;0.72;78.38;93632.97;1749858;80;21159;-78
2020/12/16 08:05:14;;;;;;;13.88;8.40;;;;;;;0.74;77.85;93640.66;1726473;80;21157;-77
2020/12/16 08:07:42;;;;;;;9.00;6.90;;;;;;;0.78;77.58;93647.48;1748243;81;21278;-76
2020/12/16 08:10:11;;;;;;;9.20;7.00;;;;;;;0.75;77.75;93636.87;1757752;81;21235;-78
2020/12/16 08:12:42;;;;;;;11.25;7.92;;;;;;;0.77;76.98;93650.72;1765140;79;21677;-78
2020/12/16 08:15:16;;;;;;;13.60;9.10;;;;;;;0.85;77.41;93638.38;1796425;79;21669;-79
2020/12/16 08:17:48;;;;;;;11.93;7.97;;;;;;;1.01;76.95;93647.35;1773095;79;21219;-78
2020/12/16 08:20:23;;;;;;;10.08;6.30;;;;;;;1.11;76.69;93646.95;1771708;79;21200;-77
2020/12/16 08:22:58;;;;;;;7.83;5.80;;;;;;;1.33;75.65;93653.84;1745780;81;21152;-84
2020/12/16 08:25:27;;;;;;;8.43;6.08;;;;;;;1.65;74.50;93645.52;1739812;81;21336;-82
2020/12/16 08:27:56;;;;;;;10.63;7.75;;;;;;;1.94;73.81;93641.86;1775534;79;21248;-81
2020/12/16 08:30:27;;;;;;;10.15;6.35;;;;;;;2.10;73.50;93641.19;1763343;80;21206;-80
2020/12/16 08:33:15;;;;;;;7.72;6.00;;;;;;;2.24;72.21;93645.66;1763393;79;21163;-81
2020/12/16 08:35:54;;;;;;;8.70;6.72;;;;;;;2.27;72.63;93646.89;1738809;81;21877;-78
2020/12/16 08:38:32;;;;;;;9.85;6.90;;;;;;;2.52;71.48;93642.26;1834839;76;21649;-82
2020/12/16 08:41:00;;;;;;;9.78;6.53;;;;;;;2.79;70.63;93636.17;1820596;76;21150;-80
2020/12/16 08:43:31;;;;;;;7.50;6.53;;;;;;;3.09;69.07;93642.00;1798754;78;21151;-82
2020/12/16 08:46:06;;;;;;;7.78;5.47;;;;;;;3.30;68.99;93635.63;1726835;79;21198;-79
2020/12/16 08:48:42;;;;;;;;;;;;;;;3.48;68.54;93641.48;1804522;78;21211;-81
2020/12/16 08:51:15;;;;;;;7.92;6.10;;;;;;;3.73;67.40;93641.56;1788751;79;21332;-81
2020/12/16 08:53:49;;;;;;;6.55;5.65;;;;;;;4.00;67.48;93637.79;1830327;77;21195;-79
2020/12/16 08:56:44;;;;;;;11.33;7.95;;;;;;;4.62;66.46;93636.13;1824578;77;21178;-78
2020/12/16 08:59:29;;;;;;;9.10;6.67;;;;;;;4.62;66.46;93636.13;1844111;77;21127;-80
2020/12/16 09:02:07;;;;;;;7.92;6.20;;;;;;;4.62;64.30;93624.00;1832581;77;21461;-79
2020/12/16 09:04:37;;;;;;;10.82;6.70;;;;;;;4.49;64.63;93626.61;1784824;78;21235;-82
2020/12/16 09:07:08;;;;;;;7.03;5.67;;;;;;;4.28;64.81;93612.88;1829251;77;21262;-79
2020/12/16 09:09:51;;;;;;;9.70;6.78;;;;;;;4.12;65.52;93612.91;1754082;79;21185;-82
2020/12/16 09:12:21;;;;;;;16.90;11.40;;;;;;;4.12;65.52;93612.91;1745330;80;21254;-78
2020/12/16 09:14:59;;;;;;;11.30;7.50;;;;;;;3.99;66.74;93606.07;1757485;81;21204;-85
2020/12/16 09:17:29;;;;;;;7.12;5.47;;;;;;;3.76;67.36;93606.45;1757447;80;21820;-80
2020/12/16 09:19:58;;;;;;;8.33;6.30;;;;;;;3.76;67.36;93606.45;1765224;79;21037;-79
2020/12/16 09:22:28;;;;;;;10.53;7.53;;;;;;;3.71;67.58;93597.30;1761325;78;21258;-79
2020/12/16 09:25:01;;;;;;;13.15;8.58;;;;;;;3.70;67.85;93591.72;1733667;80;21714;-81
2020/12/16 09:27:31;;;;;;;14.15;9.10;;;;;;;3.57;68.00;93598.53;1745100;80;21235;-81
2020/12/16 09:30:00;;;;;;;26.42;9.33;;;;;;;3.40;68.17;93598.84;1753048;79;21230;-82
2020/12/16 09:32:28;;;;;;;16.40;12.07;;;;;;;3.24;69.37;93600.73;1828002;77;21160;-81
2020/12/16 09:34:57;;;;;;;17.92;12.90;;;;;;;3.12;70.22;93594.30;1793142;78;21163;-80
2020/12/16 09:37:33;;;;;;;16.40;11.40;;;;;;;3.09;70.79;93594.20;1814081;77;21190;-80
2020/12/16 09:40:11;;;;;;;13.85;9.33;;;;;;;3.10;70.53;93588.47;1777675;79;21195;-82
2020/12/16 09:42:39;;;;;;;12.65;7.70;;;;;;;3.09;70.61;93591.52;1794643;79;21211;-80
2020/12/16 09:45:13;;;;;;;14.90;9.58;;;;;;;3.10;70.48;93585.79;1773620;78;21314;-83
2020/12/16 09:47:46;;;;;;;19.57;11.83;;;;;;;3.09;70.33;93584.23;1813778;77;21230;-80
2020/12/16 09:50:14;;;;;;;14.58;9.30;;;;;;;3.01;71.16;93576.30;1786634;78;21168;-80
2020/12/16 09:52:42;;;;;;;18.82;12.53;;;;;;;2.94;71.25;93582.30;1785631;77;21808;-79
2020/12/16 09:55:23;;;;;;;17.87;11.38;;;;;;;2.88;71.74;93588.45;1843368;76;21887;-77
2020/12/16 09:57:53;;;;;;;14.03;9.48;;;;;;;2.79;71.74;93578.44;1770749;79;21124;-77
2020/12/16 10:00:21;;;;;;;15.98;10.15;;;;;;;2.74;71.84;93575.97;1733203;80;21473;-79
2020/12/16 10:02:58;;;;;;;13.13;9.15;;;;;;;2.72;72.24;93575.55;1816507;77;21293;-80
2020/12/16 10:05:26;;;;;;;14.75;9.88;;;;;;;2.70;72.27;93575.09;1793023;77;21239;-80
2020/12/16 10:07:54;;;;;;;15.35;9.40;;;;;;;2.67;72.46;93574.42;1767538;78;21194;-82
2020/12/16 10:10:22;;;;;;;19.35;12.50;;;;;;;2.60;73.01;93575.03;1766005;77;21306;-81
2020/12/16 10:12:50;;;;;;;14.63;9.10;;;;;;;2.53;73.25;93572.70;1819233;77;21470;-79
2020/12/16 10:15:19;;;;;;;14.13;9.63;;;;;;;2.48;73.50;93570.24;1813635;77;21342;-82
2020/12/16 10:17:47;;;;;;;16.02;9.25;;;;;;;2.46;73.61;93566.57;1777602;79;21135;-84
2020/12/16 10:20:16;;;;;;;17.45;10.98;;;;;;;2.50;73.78;93568.79;1825789;77;21191;-81
2020/12/16 10:22:44;;;;;;;17.55;11.18;;;;;;;2.52;73.79;93569.78;1822180;77;21258;-82
2020/12/16 10:25:13;;;;;;;18.02;11.35;;;;;;;2.54;74.31;93565.64;1796552;78;21198;-80
2020/12/16 10:27:41;;;;;;;15.83;9.75;;;;;;;2.57;74.23;93566.88;1780314;79;21190;-78
2020/12/16 10:30:09;;;;;;;15.68;9.75;;;;;;;2.58;74.23;93560.37;1772096;80;21145;-81
2020/12/16 10:32:39;;;;;;;20.85;11.88;;;;;;;2.62;74.71;93553.98;1785297;78;21257;-82
2020/12/16 10:35:07;;;;;;;15.68;9.68;;;;;;;2.72;75.52;93558.66;1821507;77;21218;-83
2020/12/16 10:37:40;;;;;;;22.87;14.10;;;;;;;2.87;75.24;93549.30;1833865;77;21670;-80
2020/12/16 10:40:09;;;;;;;16.73;11.25;;;;;;;2.99;73.80;93549.02;1837123;77;21970;-80
2020/12/16 10:42:37;;;;;;;19.52;12.20;;;;;;;3.03;73.50;93552.58;1772662;79;21167;-81
2020/12/16 10:45:05;;;;;;;19.50;12.90;;;;;;;3.02;73.52;93549.12;1771860;80;21756;-80
2020/12/16 10:47:33;;;;;;;14.43;10.23;;;;;;;3.05;73.38;93544.97;1731439;79;21194;-81
2020/12/16 10:50:03;;;;;;;13.13;9.43;;;;;;;3.11;74.03;93545.70;1805082;77;21637;-80
2020/12/16 10:52:31;;;;;;;14.63;9.25;;;;;;;3.22;73.23;93541.16;1813124;78;21195;-82
2020/12/16 10:54:59;;;;;;;14.10;9.35;;;;;;;3.25;72.54;93532.42;1784885;79;21194;-81
2020/12/16 10:57:27;;;;;;;18.73;11.08;;;;;;;3.33;73.04;93541.65;1754666;80;21629;-77
2020/12/16 10:59:56;;;;;;;15.10;8.25;;;;;;;3.48;73.60;93540.09;1774724;79;21193;-80
2020/12/16 11:02:25;;;;;;;16.12;10.30;;;;;;;3.64;73.96;93533.36;1759758;80;21260;-82
2020/12/16 11:04:53;;;;;;;14.43;9.48;;;;;;;3.82;73.50;93531.09;1794818;78;21156;-83
2020/12/16 11:07:21;;;;;;;14.35;7.72;;;;;;;4.02;73.03;93539.42;1803900;78;21203;-84
2020/12/16 11:09:49;;;;;;;13.40;8.13;;;;;;;4.16;72.36;93532.81;1740875;81;22638;-78
2020/12/16 11:12:18;;;;;;;17.23;9.88;;;;;;;4.27;70.09;93538.64;1810608;78;21686;-83
2020/12/16 11:14:46;;;;;;;16.17;9.90;;;;;;;4.36;70.99;93528.47;1817888;77;21171;-81
2020/12/16 11:17:16;;;;;;;13.68;9.13;;;;;;;4.47;70.55;93532.70;1795070;78;21162;-80
2020/12/16 11:19:44;;;;;;;17.57;9.30;;;;;;;4.61;70.69;93537.61;1763817;79;21378;-81
2020/12/16 11:22:13;;;;;;;13.03;8.83;;;;;;;4.67;69.72;93528.13;1740205;81;21180;-84
2020/12/16 11:24:41;;;;;;;13.28;9.43;;;;;;;4.71;68.61;93534.92;1803111;77;21193;-80
2020/12/16 11:27:10;;;;;;;14.55;9.00;;;;;;;4.73;68.61;93526.69;1840876;76;21167;-85
2020/12/16 11:29:38;;;;;;;12.43;8.95;;;;;;;4.80;68.14;93528.17;1816596;77;21196;-79
2020/12/16 11:32:06;;;;;;;17.37;9.43;;;;;;;4.89;67.97;93526.62;1808189;77;21170;-80
2020/12/16 11:34:34;;;;;;;19.60;12.35;;;;;;;4.94;68.01;93533.06;1775400;78;21192;-79
2020/12/16 11:37:03;;;;;;;14.70;9.88;;;;;;;5.01;67.48;93529.73;1813686;78;21592;-79
2020/12/16 11:39:31;;;;;;;14.95;10.18;;;;;;;5.05;67.11;93528.65;1808467;78;21080;-79
2020/12/16 11:41:59;;;;;;;15.88;9.28;;;;;;;5.11;67.48;93529.93;1803005;79;21657;-82
2020/12/16 11:44:27;;;;;;;17.20;11.05;;;;;;;5.17;66.87;93529.63;1803270;79;21209;-80
2020/12/16 11:46:58;;;;;;;16.07;10.78;;;;;;;5.22;67.02;93535.48;1803876;79;22128;-81
2020/12/16 11:49:27;;;;;;;21.77;12.58;;;;;;;5.29;66.74;93538.89;1789745;79;21633;-81
2020/12/16 11:51:55;;;;;;;19.65;11.70;;;;;;;5.32;66.55;93530.09;1774195;80;21297;-77
2020/12/16 11:54:24;;;;;;;13.72;9.33;;;;;;;5.32;66.55;93530.09;1803443;77;21183;-81
2020/12/16 11:56:52;;;;;;;16.73;10.88;;;;;;;5.34;66.83;93536.69;1809639;78;21185;-82
2020/12/16 11:59:22;;;;;;;16.35;9.93;;;;;;;5.39;67.36;93534.83;1759237;80;22717;-83